Weather History for Creston, IA

Change the Weather History Date:

Friday, January 13, 2012

  Actual Average Record
Temperature  
Mean Temperature 12 °F -  
Max Temperature 21 °F 30 °F 59 °F (1987)
Min Temperature 3 °F 12 °F -14 °F (1979)
Degree Days  
Heating Degree Days 53    
Moisture  
Dew Point 2 °F    
Average Humidity 65    
Maximum Humidity 79    
Minimum Humidity 46    
Precipitation  
Precipitation 0.00 in - - ()
Sea Level Pressure  
Sea Level Pressure 30.00 in    
Wind  
Wind Speed 12 mph (WNW)    
Max Wind Speed 20 mph    
Max Gust Speed 28 mph    
Visibility 10 miles    
Events      
Averages and records for this station are not official NWS values.
T = Trace of Precipitation, MM = Missing Value Source: NWS Daily Summary

Daily Weather History Graph

Daily Weather History Graph

Search for Another Location

Airport:

Trip Planner

Search our weather history database for the weather conditions in past years. The results will help you decide how hot, cold, wet, or windy it might be!

Date:

Astronomy

Jan. 13, 2012 Rise Set
Actual Time 7:41 AM CST 5:11 PM CST
Civil Twilight 7:10 AM CST 5:41 PM CST
Nautical Twilight 6:36 AM CST 6:15 PM CST
Astronomical Twilight 6:03 AM CST 6:48 PM CST
Moon 10:28 PM CST (1/13) 9:53 AM CST (1/13)
Length of Visible Light 10h 30m
Length of Day
9h 30m
Waning Gibbous, 78% of the Moon is Illuminated
Jan 13
Waning Gibbous
Jan 16
Last Quarter
Jan 23
New
Jan 30
First Quarter
Feb 7
Full

Hourly Weather History & Observations

Time (CST) Temp. Windchill Dew Point Humidity Pressure Visibility Wind Dir Wind Speed Gust Speed Precip Events Conditions
12:15 AM 10.4 °F -6.6 °F 3.2 °F 73% 29.93 in 10.0 mi NW 16.1 mph 27.6 mph N/A   Overcast
12:35 AM 10.4 °F -8.2 °F 3.2 °F 73% 29.93 in 10.0 mi NW 19.6 mph 23.0 mph N/A   Overcast
12:55 AM 10.4 °F -6.0 °F 3.2 °F 73% 29.94 in 10.0 mi NW 15.0 mph 20.7 mph N/A   Overcast
1:15 AM 8.6 °F -10.0 °F 3.2 °F 79% 29.94 in 10.0 mi NW 18.4 mph 24.2 mph N/A   Overcast
1:35 AM 8.6 °F -9.5 °F 1.4 °F 73% 29.94 in 10.0 mi NW 17.3 mph 21.9 mph N/A   Overcast
1:55 AM 8.6 °F -7.0 °F 1.4 °F 73% 29.95 in 10.0 mi NW 12.7 mph 23.0 mph N/A   Overcast
2:15 AM 6.8 °F -9.3 °F -0.4 °F 72% 29.95 in 10.0 mi WNW 12.7 mph - N/A   Scattered Clouds
2:35 AM 6.8 °F -8.6 °F -0.4 °F 72% 29.97 in 10.0 mi WNW 11.5 mph 17.3 mph N/A   Clear
2:55 AM 6.8 °F -8.6 °F -0.4 °F 72% 29.96 in 10.0 mi WNW 11.5 mph - N/A   Clear
3:15 AM 6.8 °F -7.8 °F -0.4 °F 72% 29.97 in 10.0 mi WNW 10.4 mph - N/A   Clear
3:35 AM 6.8 °F -6.9 °F -0.4 °F 72% 29.96 in 10.0 mi NW 9.2 mph - N/A   Clear
3:55 AM 6.8 °F -8.6 °F -0.4 °F 72% 29.96 in 10.0 mi WNW 11.5 mph - N/A   Clear
4:15 AM 5.0 °F -10.0 °F -0.4 °F 78% 29.95 in 10.0 mi WNW 10.4 mph - N/A   Clear
4:35 AM 5.0 °F -9.1 °F -2.2 °F 72% 29.95 in 10.0 mi NW 9.2 mph - N/A   Clear
4:55 AM 5.0 °F -9.1 °F -0.4 °F 78% 29.96 in 10.0 mi WNW 9.2 mph - N/A   Clear
5:15 AM 5.0 °F -9.1 °F -2.2 °F 72% 29.96 in 10.0 mi WNW 9.2 mph - N/A   Clear
5:35 AM 5.0 °F -10.0 °F -0.4 °F 78% 29.97 in 10.0 mi WNW 10.4 mph - N/A   Clear
5:55 AM 5.0 °F -10.0 °F -0.4 °F 78% 29.97 in 10.0 mi NW 10.4 mph 16.1 mph N/A   Clear
6:15 AM 5.0 °F -10.0 °F -0.4 °F 78% 29.98 in 10.0 mi NW 10.4 mph - N/A   Clear
6:55 AM 5.0 °F -9.1 °F -2.2 °F 72% 29.99 in 10.0 mi WNW 9.2 mph - N/A   Clear
7:15 AM 3.2 °F -12.2 °F -2.2 °F 78% 30.00 in 10.0 mi WNW 10.4 mph - N/A   Clear
7:35 AM 3.2 °F -12.2 °F -2.2 °F 78% 30.00 in 10.0 mi WNW 10.4 mph - N/A   Clear
8:15 AM 3.2 °F -11.3 °F -2.2 °F 78% 30.01 in 10.0 mi WNW 9.2 mph - N/A   Clear
8:35 AM 5.0 °F -8.1 °F -0.4 °F 78% 30.02 in 10.0 mi West 8.1 mph - N/A   Clear
8:55 AM 6.8 °F -6.9 °F -0.4 °F 72% 30.02 in 10.0 mi WNW 9.2 mph - N/A   Clear
9:15 AM 6.8 °F -8.6 °F -0.4 °F 72% 30.03 in 10.0 mi NW 11.5 mph - N/A   Clear
9:35 AM 8.6 °F -6.3 °F -0.4 °F 67% 30.04 in 10.0 mi WNW 11.5 mph - N/A   Clear
9:55 AM 8.6 °F -6.3 °F -0.4 °F 67% 30.05 in 10.0 mi WNW 11.5 mph - N/A   Clear
10:15 AM 10.4 °F -3.3 °F -0.4 °F 62% 30.05 in 10.0 mi NW 10.4 mph - N/A   Clear
10:35 AM 10.4 °F -3.3 °F 1.4 °F 67% 30.05 in 10.0 mi WNW 10.4 mph - N/A   Clear
10:55 AM 12.2 °F -0.2 °F 1.4 °F 62% 30.05 in 10.0 mi WNW 9.2 mph - N/A   Clear
11:15 AM 12.2 °F -1.8 °F 1.4 °F 62% 30.04 in 10.0 mi WNW 11.5 mph - N/A   Clear
11:35 AM 14.0 °F 2.0 °F 1.4 °F 57% 30.03 in 10.0 mi WNW 9.2 mph - N/A   Clear
11:55 AM 15.8 °F 3.4 °F 1.4 °F 53% 30.02 in 10.0 mi WNW 10.4 mph - N/A   Clear
12:15 PM 17.6 °F 5.7 °F 3.2 °F 53% 30.02 in 10.0 mi WNW 10.4 mph - N/A   Clear
12:35 PM 17.6 °F 8.2 °F 5.0 °F 58% 30.01 in 10.0 mi West 6.9 mph 10.4 mph N/A   Clear
12:55 PM 19.4 °F 8.6 °F 5.0 °F 54% 30.00 in 10.0 mi West 9.2 mph - N/A   Clear
1:15 PM 19.4 °F 6.6 °F 6.8 °F 58% 30.01 in 10.0 mi West 12.7 mph - N/A   Clear
1:35 PM 19.4 °F 7.2 °F 6.8 °F 58% 30.01 in 10.0 mi West 11.5 mph 18.4 mph N/A   Clear
1:55 PM 21.2 °F 9.5 °F 6.8 °F 54% 30.01 in 10.0 mi West 11.5 mph - N/A   Clear
2:15 PM 19.4 °F 6.0 °F 6.8 °F 58% 30.01 in 10.0 mi West 13.8 mph - N/A   Clear
2:35 PM 21.2 °F 8.9 °F 6.8 °F 54% 30.01 in 10.0 mi West 12.7 mph - N/A   Clear
2:55 PM 21.2 °F 9.5 °F 6.8 °F 54% 30.01 in 10.0 mi West 11.5 mph - N/A   Clear
3:15 PM 21.2 °F 10.1 °F 6.8 °F 54% 30.01 in 10.0 mi West 10.4 mph - N/A   Clear
3:35 PM 21.2 °F 9.5 °F 6.8 °F 54% 30.01 in 10.0 mi West 11.5 mph - N/A   Clear
3:55 PM 21.2 °F 10.9 °F 5.0 °F 50% 30.01 in 10.0 mi West 9.2 mph - N/A   Clear
4:15 PM 21.2 °F 10.1 °F 3.2 °F 46% 30.01 in 10.0 mi West 10.4 mph - N/A   Clear
4:35 PM 21.2 °F 11.7 °F 3.2 °F 46% 30.02 in 10.0 mi West 8.1 mph - N/A   Clear
4:55 PM 21.2 °F 12.6 °F 3.2 °F 46% 30.02 in 10.0 mi West 6.9 mph - N/A   Clear
5:15 PM 19.4 °F 11.5 °F 3.2 °F 49% 30.02 in 10.0 mi West 5.8 mph - N/A   Clear
5:35 PM 17.6 °F 10.7 °F 5.0 °F 58% 30.02 in 10.0 mi WSW 4.6 mph - N/A   Clear
5:55 PM 17.6 °F 10.7 °F 5.0 °F 58% 30.03 in 10.0 mi WSW 4.6 mph - N/A   Clear
6:15 PM 17.6 °F 9.3 °F 3.2 °F 53% 30.03 in 10.0 mi WSW 5.8 mph - N/A   Clear
6:35 PM 15.8 °F 8.6 °F 3.2 °F 58% 30.03 in 10.0 mi SW 4.6 mph - N/A   Clear
6:55 PM 15.8 °F 8.6 °F 3.2 °F 58% 30.01 in 10.0 mi SSW 4.6 mph - N/A   Clear
7:15 PM 15.8 °F 7.2 °F 5.0 °F 62% 30.02 in 10.0 mi South 5.8 mph - N/A   Clear
8:15 PM 17.6 °F 12.3 °F 6.8 °F 63% 30.00 in 10.0 mi South 3.5 mph - N/A   Overcast
8:35 PM 17.6 °F 10.7 °F 6.8 °F 63% 30.00 in 10.0 mi South 4.6 mph - N/A   Overcast
8:55 PM 17.6 °F 9.3 °F 6.8 °F 63% 29.99 in 10.0 mi South 5.8 mph - N/A   Mostly Cloudy
9:15 PM 17.6 °F 10.7 °F 6.8 °F 63% 29.99 in 10.0 mi SSE 4.6 mph - N/A   Mostly Cloudy
9:35 PM 17.6 °F 10.7 °F 6.8 °F 63% 29.98 in 10.0 mi South 4.6 mph - N/A   Overcast
9:55 PM 19.4 °F 12.8 °F 6.8 °F 58% 29.98 in 10.0 mi South 4.6 mph - N/A   Overcast
10:15 PM 19.4 °F 14.3 °F 6.8 °F 58% 29.97 in 10.0 mi SSE 3.5 mph - N/A   Overcast
10:35 PM 19.4 °F 12.8 °F 6.8 °F 58% 29.96 in 10.0 mi SSE 4.6 mph - N/A   Overcast
10:55 PM 19.4 °F 10.4 °F 6.8 °F 58% 29.96 in 10.0 mi SSE 6.9 mph - N/A   Overcast
11:15 PM 21.2 °F 13.6 °F 6.8 °F 54% 29.95 in 10.0 mi SSE 5.8 mph - N/A   Mostly Cloudy
11:35 PM 19.4 °F 8.6 °F 5.0 °F 54% 29.94 in 10.0 mi SSE 9.2 mph - N/A   Overcast
11:55 PM 19.4 °F 8.6 °F 5.0 °F 54% 29.93 in 10.0 mi SSE 9.2 mph - N/A   Overcast